createdAt,value
2023-08-18T00:02:34.398Z,23.65
2023-08-18T00:05:23.237Z,23.61
2023-08-18T00:07:58.281Z,23.58
2023-08-18T00:10:47.262Z,23.55
2023-08-18T00:13:22.309Z,23.54
2023-08-18T00:16:11.267Z,23.52
2023-08-18T00:18:46.357Z,23.50
2023-08-18T00:21:35.217Z,23.48
2023-08-18T00:24:11.289Z,23.48
2023-08-18T00:27:00.221Z,23.46
2023-08-18T00:29:56.223Z,23.43
2023-08-18T00:32:52.278Z,23.37
2023-08-18T00:35:49.218Z,23.31
2023-08-18T00:38:31.698Z,23.24
2023-08-18T00:41:20.225Z,23.18
2023-08-18T00:43:55.520Z,23.13
2023-08-18T00:46:45.242Z,23.07
2023-08-18T00:49:20.991Z,23.03
2023-08-18T00:52:11.253Z,23.03
2023-08-18T00:54:46.616Z,23.01
2023-08-18T00:57:35.246Z,22.97
2023-08-18T01:00:10.812Z,22.90
2023-08-18T01:02:59.274Z,22.84
2023-08-18T01:05:35.621Z,22.76
2023-08-18T01:08:24.369Z,22.70
2023-08-18T01:11:07.461Z,22.63
2023-08-18T01:14:12.264Z,22.58
2023-08-18T01:16:53.148Z,22.53
2023-08-18T01:19:42.215Z,22.52
2023-08-18T01:22:39.213Z,22.51
2023-08-18T01:25:35.239Z,22.49
2023-08-18T01:28:31.228Z,22.42
2023-08-18T01:31:34.304Z,22.35
2023-08-18T01:34:25.220Z,22.29
2023-08-18T01:37:02.290Z,22.26
2023-08-18T01:39:51.213Z,22.26
2023-08-18T01:42:26.292Z,22.26
2023-08-18T01:45:19.211Z,22.29
2023-08-18T01:47:54.388Z,22.32
2023-08-18T01:50:36.491Z,22.33
2023-08-18T01:53:18.174Z,22.34
2023-08-18T01:55:53.310Z,22.34
2023-08-18T01:58:29.089Z,22.32
2023-08-18T02:01:11.219Z,22.26
2023-08-18T02:03:46.400Z,22.19
2023-08-18T02:06:21.684Z,22.12
2023-08-18T02:09:03.234Z,22.08
2023-08-18T02:11:39.330Z,22.06
2023-08-18T02:14:14.472Z,22.06
2023-08-18T02:16:56.243Z,22.05
2023-08-18T02:19:31.310Z,22.04
2023-08-18T02:22:06.632Z,22.02
2023-08-18T02:24:48.236Z,22.00
2023-08-18T02:27:37.235Z,21.97
2023-08-18T02:30:33.236Z,21.93
2023-08-18T02:33:29.223Z,21.90
2023-08-18T02:36:25.224Z,21.91
2023-08-18T02:39:21.229Z,21.92
2023-08-18T02:42:17.244Z,21.92
2023-08-18T02:45:13.216Z,21.90
2023-08-18T02:48:09.243Z,21.86
2023-08-18T02:50:51.536Z,21.84
2023-08-18T02:53:40.201Z,21.85
2023-08-18T02:56:22.243Z,21.83
2023-08-18T02:59:04.298Z,21.80
2023-08-18T03:01:46.264Z,21.76
2023-08-18T03:04:28.316Z,21.73
2023-08-18T03:07:10.221Z,21.72
2023-08-18T03:09:52.308Z,21.72
2023-08-18T03:12:34.191Z,21.73
2023-08-18T03:15:17.319Z,21.73
2023-08-18T03:17:59.267Z,21.72
2023-08-18T03:20:41.339Z,21.71
2023-08-18T03:23:30.227Z,21.71
2023-08-18T03:26:10.576Z,21.73
2023-08-18T03:29:06.253Z,21.74
2023-08-18T03:32:02.209Z,21.74
2023-08-18T03:34:58.231Z,21.73
2023-08-18T03:37:54.207Z,21.71
2023-08-18T03:40:50.235Z,21.68
2023-08-18T03:43:46.229Z,21.70
2023-08-18T03:46:42.215Z,21.71
2023-08-18T03:49:38.212Z,21.69
2023-08-18T03:52:20.493Z,21.67
2023-08-18T03:55:09.234Z,21.64
2023-08-18T03:57:44.564Z,21.64
2023-08-18T04:00:33.242Z,21.68
2023-08-18T04:03:09.414Z,21.70
2023-08-18T04:06:01.281Z,21.73
2023-08-18T04:08:41.658Z,21.74
2023-08-18T04:11:30.199Z,21.73
2023-08-18T04:14:06.377Z,21.72
2023-08-18T04:16:55.209Z,21.71
2023-08-18T04:19:30.467Z,21.73
2023-08-18T04:22:19.221Z,21.77
2023-08-18T04:24:54.449Z,21.81
2023-08-18T04:27:43.245Z,21.86
2023-08-18T04:30:39.234Z,21.88
2023-08-18T04:33:28.308Z,21.91
2023-08-18T04:36:12.219Z,21.91
2023-08-18T04:38:54.277Z,21.95
2023-08-18T04:41:36.225Z,21.99
2023-08-18T04:44:18.291Z,22.04
2023-08-18T04:47:00.220Z,22.12
2023-08-18T04:49:42.404Z,22.18
2023-08-18T04:52:24.234Z,22.23
2023-08-18T04:55:06.881Z,22.26
2023-08-18T04:57:48.236Z,22.31
2023-08-18T05:00:31.347Z,22.35
2023-08-18T05:03:14.265Z,22.38
2023-08-18T05:06:17.219Z,22.43
2023-08-18T05:09:13.223Z,22.52
2023-08-18T05:12:10.233Z,22.59
2023-08-18T05:15:06.219Z,22.65
2023-08-18T05:18:02.263Z,22.69
2023-08-18T05:20:58.215Z,22.75
2023-08-18T05:23:54.206Z,22.80
2023-08-18T05:26:43.219Z,22.87
2023-08-18T05:29:18.267Z,22.95
2023-08-18T05:32:07.233Z,23.03
2023-08-18T05:34:43.291Z,23.11
2023-08-18T05:37:32.235Z,23.19
2023-08-18T05:40:07.291Z,23.25
2023-08-18T05:42:57.209Z,23.31
2023-08-18T05:45:32.298Z,23.34
2023-08-18T05:48:21.201Z,23.37
2023-08-18T05:50:56.314Z,23.42
2023-08-18T05:53:45.222Z,23.49
2023-08-18T05:56:20.315Z,23.57
2023-08-18T05:59:09.218Z,23.65
2023-08-18T06:01:44.340Z,23.70
2023-08-18T06:04:26.481Z,23.71
2023-08-18T06:07:08.196Z,23.72
2023-08-18T06:09:43.344Z,23.70
2023-08-18T06:12:18.449Z,23.68
2023-08-18T06:15:00.210Z,23.68
2023-08-18T06:17:35.304Z,23.70
2023-08-18T06:20:12.311Z,23.74
2023-08-18T06:22:54.210Z,23.77
2023-08-18T06:25:36.209Z,23.81
2023-08-18T06:28:25.222Z,23.86
2023-08-18T06:31:22.256Z,23.90
2023-08-18T06:34:04.579Z,23.93
2023-08-18T06:36:53.209Z,23.96
2023-08-18T06:39:28.532Z,24.02
2023-08-18T06:42:17.250Z,24.12
2023-08-18T06:44:52.498Z,24.25
2023-08-18T06:47:41.248Z,24.36
2023-08-18T06:50:16.496Z,24.49
2023-08-18T06:53:05.204Z,24.62
2023-08-18T06:55:47.436Z,24.74
2023-08-18T06:58:42.199Z,24.87
2023-08-18T07:01:17.469Z,24.94
2023-08-18T07:04:07.201Z,25.01
2023-08-18T07:06:45.512Z,25.07
2023-08-18T07:09:34.214Z,25.13
2023-08-18T07:12:10.438Z,25.19
2023-08-18T07:15:06.252Z,25.24
2023-08-18T07:18:02.242Z,25.26
2023-08-18T07:20:58.177Z,25.26
2023-08-18T07:23:47.220Z,25.25
2023-08-18T07:26:22.280Z,25.23
2023-08-18T07:29:12.211Z,25.23
2023-08-18T07:31:47.355Z,25.21
2023-08-18T07:34:36.231Z,25.19
2023-08-18T07:37:12.426Z,25.16
2023-08-18T07:40:01.184Z,25.13
2023-08-18T07:42:36.275Z,25.11
2023-08-18T07:45:25.239Z,25.10
2023-08-18T07:48:01.451Z,25.09
2023-08-18T07:50:50.211Z,25.10
2023-08-18T07:53:27.413Z,25.11
2023-08-18T07:56:16.199Z,25.18
2023-08-18T07:58:51.284Z,25.28
2023-08-18T08:01:40.204Z,25.38
2023-08-18T08:04:15.520Z,25.46
2023-08-18T08:07:04.236Z,25.48
2023-08-18T08:09:39.292Z,25.46
2023-08-18T08:12:28.428Z,25.41
2023-08-18T08:15:05.301Z,25.37
2023-08-18T08:17:54.239Z,25.32
2023-08-18T08:20:36.320Z,25.29
2023-08-18T08:23:25.205Z,25.23
2023-08-18T08:26:00.280Z,25.18
2023-08-18T08:29:00.741Z,25.13
2023-08-18T08:31:57.206Z,25.08
2023-08-18T08:34:53.222Z,24.96
2023-08-18T08:37:49.205Z,24.86
2023-08-18T08:40:45.238Z,24.76
2023-08-18T08:43:42.586Z,24.60
2023-08-18T08:46:39.293Z,24.47
2023-08-18T08:49:38.203Z,24.38
2023-08-18T08:52:35.223Z,24.32
2023-08-18T08:55:31.184Z,24.27
2023-08-18T08:58:27.178Z,24.22
2023-08-18T09:01:23.232Z,24.05
2023-08-18T09:04:19.199Z,23.89
2023-08-18T09:07:16.233Z,23.74
2023-08-18T09:10:16.354Z,23.57
2023-08-18T09:13:13.232Z,23.41
2023-08-18T09:16:04.235Z,23.31
2023-08-18T09:18:41.320Z,23.23
2023-08-18T09:21:24.376Z,23.12
2023-08-18T09:24:06.207Z,23.01
2023-08-18T09:26:45.639Z,22.91
2023-08-18T09:29:21.912Z,22.76
2023-08-18T09:32:05.200Z,22.58
2023-08-18T09:34:56.917Z,22.39
2023-08-18T09:37:33.142Z,22.19
2023-08-18T09:40:16.237Z,22.03
2023-08-18T09:42:58.198Z,21.96
2023-08-18T09:45:34.973Z,21.96
2023-08-18T09:48:25.186Z,21.96
2023-08-18T09:51:01.470Z,21.96
2023-08-18T09:53:45.308Z,21.97
2023-08-18T09:56:33.222Z,21.95
2023-08-18T09:59:30.451Z,21.94
2023-08-18T10:02:13.205Z,21.89
2023-08-18T10:04:55.395Z,21.82
2023-08-18T10:07:38.224Z,21.77
2023-08-18T10:10:20.227Z,21.74
2023-08-18T10:12:58.284Z,21.74
2023-08-18T10:15:47.245Z,21.77
2023-08-18T10:18:24.440Z,21.83
2023-08-18T10:21:13.197Z,21.88
2023-08-18T10:23:48.458Z,21.91
2023-08-18T10:26:37.196Z,21.92
2023-08-18T10:29:35.121Z,21.92
2023-08-18T10:32:25.243Z,21.91
2023-08-18T10:35:33.467Z,21.89
2023-08-18T10:38:22.209Z,21.90
2023-08-18T10:41:06.250Z,21.91
2023-08-18T10:44:05.235Z,21.91
2023-08-18T10:47:01.210Z,21.89
2023-08-18T10:49:57.242Z,21.82
2023-08-18T10:52:53.218Z,21.66
2023-08-18T10:55:49.196Z,21.61
2023-08-18T10:58:32.375Z,21.56
2023-08-18T11:01:23.230Z,21.52
2023-08-18T11:03:58.606Z,21.42
2023-08-18T11:06:47.215Z,21.36
2023-08-18T11:09:22.608Z,21.35
2023-08-18T11:12:11.202Z,21.38
2023-08-18T11:14:46.449Z,21.42
2023-08-18T11:17:35.251Z,21.43
2023-08-18T11:20:13.815Z,21.42
2023-08-18T11:23:04.216Z,21.37
2023-08-18T11:25:40.283Z,21.31
2023-08-18T11:28:30.197Z,21.23
2023-08-18T11:31:14.166Z,21.24
2023-08-18T11:34:03.248Z,21.24
2023-08-18T11:36:39.928Z,21.27
2023-08-18T11:39:29.204Z,21.28
2023-08-18T11:42:05.936Z,21.32
2023-08-18T11:44:57.224Z,21.40
2023-08-18T11:47:32.458Z,21.48
2023-08-18T11:50:27.203Z,21.56
2023-08-18T11:53:10.664Z,21.65
2023-08-18T11:55:59.240Z,21.70
2023-08-18T11:58:34.948Z,21.71
2023-08-18T12:01:24.237Z,21.73
2023-08-18T12:03:59.738Z,21.74
2023-08-18T12:06:48.200Z,21.72
2023-08-18T12:09:24.257Z,21.68
2023-08-18T12:12:06.276Z,21.64
2023-08-18T12:14:48.222Z,21.61
2023-08-18T12:17:31.541Z,21.60
2023-08-18T12:20:14.202Z,21.57
2023-08-18T12:22:57.319Z,21.53
2023-08-18T12:25:39.171Z,21.49
2023-08-18T12:28:28.228Z,21.47
2023-08-18T12:31:26.276Z,21.45
2023-08-18T12:34:22.244Z,21.44
2023-08-18T12:37:11.206Z,21.45
2023-08-18T12:39:47.874Z,21.40
2023-08-18T12:42:38.242Z,21.33
2023-08-18T12:45:14.279Z,21.30
2023-08-18T12:48:03.261Z,21.30
2023-08-18T12:50:39.296Z,21.33
2023-08-18T12:53:28.214Z,21.40
2023-08-18T12:56:03.323Z,21.46
2023-08-18T12:58:52.198Z,21.49
2023-08-18T13:01:27.736Z,21.51
2023-08-18T13:04:19.231Z,21.54
2023-08-18T13:06:56.374Z,21.54
2023-08-18T13:09:45.226Z,21.53
2023-08-18T13:12:20.312Z,21.48
2023-08-18T13:15:09.213Z,21.41
2023-08-18T13:17:44.298Z,21.37
2023-08-18T13:20:33.243Z,21.33
2023-08-18T13:23:08.948Z,21.30
2023-08-18T13:25:59.240Z,21.29
2023-08-18T13:28:37.808Z,21.29
2023-08-18T13:31:27.208Z,21.29
2023-08-18T13:34:09.284Z,21.26
2023-08-18T13:36:44.458Z,21.25
2023-08-18T13:39:29.230Z,21.27
2023-08-18T13:42:05.007Z,21.30
2023-08-18T13:44:40.450Z,21.33
2023-08-18T13:47:22.211Z,21.31
2023-08-18T13:49:57.279Z,21.29
2023-08-18T13:52:32.906Z,21.29
2023-08-18T13:55:15.193Z,21.31
2023-08-18T13:57:50.308Z,21.32
2023-08-18T14:00:26.790Z,21.32
2023-08-18T14:03:08.231Z,21.31
2023-08-18T14:05:48.298Z,21.30
2023-08-18T14:08:37.174Z,21.28
2023-08-18T14:11:14.632Z,21.27
2023-08-18T14:14:42.757Z,21.33
2023-08-18T14:17:55.868Z,21.33
2023-08-18T14:20:51.753Z,21.30
2023-08-18T14:23:47.740Z,21.27
2023-08-18T14:26:43.751Z,21.25
2023-08-18T14:29:39.742Z,21.25
2023-08-18T14:32:35.862Z,21.28
2023-08-18T14:35:24.778Z,21.32
2023-08-18T14:38:00.915Z,21.35
2023-08-18T14:40:49.761Z,21.36
2023-08-18T14:43:25.838Z,21.38
2023-08-18T14:46:09.578Z,21.39
2023-08-18T14:48:51.744Z,21.43
2023-08-18T14:51:26.833Z,21.50
2023-08-18T14:54:02.149Z,21.55
2023-08-18T14:56:44.743Z,21.56
2023-08-18T14:59:19.835Z,21.52
2023-08-18T15:01:55.476Z,21.49
2023-08-18T15:04:38.753Z,21.48
2023-08-18T15:07:20.746Z,21.52
2023-08-18T15:09:56.074Z,21.57
2023-08-18T15:12:44.757Z,21.60
2023-08-18T15:15:27.024Z,21.64
2023-08-18T15:18:16.793Z,21.65
2023-08-18T15:20:52.028Z,21.68
2023-08-18T15:23:40.771Z,21.73
2023-08-18T15:26:15.988Z,21.77
2023-08-18T15:29:04.704Z,21.82
2023-08-18T15:31:40.072Z,21.86
2023-08-18T15:34:28.745Z,21.85
2023-08-18T15:37:04.778Z,21.84
2023-08-18T15:39:53.771Z,21.86
2023-08-18T15:42:29.071Z,21.90
2023-08-18T15:45:10.878Z,21.94
2023-08-18T15:47:52.761Z,21.95
2023-08-18T15:50:34.842Z,21.96
2023-08-18T15:53:17.748Z,21.93
2023-08-18T15:55:59.872Z,21.88
2023-08-18T15:58:41.861Z,21.85
2023-08-18T16:01:23.835Z,21.85
2023-08-18T16:04:05.766Z,21.86
2023-08-18T16:06:47.824Z,21.86
2023-08-18T16:09:30.778Z,21.87
2023-08-18T16:12:26.749Z,21.87
2023-08-18T16:15:28.654Z,21.86
2023-08-18T16:18:24.768Z,21.87
2023-08-18T16:21:20.751Z,21.88
2023-08-18T16:24:16.746Z,21.91
2023-08-18T16:27:12.753Z,21.95
2023-08-18T16:30:08.798Z,21.96
2023-08-18T16:33:04.778Z,21.94
2023-08-18T16:36:00.797Z,21.93
2023-08-18T16:38:45.361Z,21.91
2023-08-18T16:41:33.792Z,21.93
2023-08-18T16:44:09.223Z,21.94
2023-08-18T16:46:58.232Z,21.93
2023-08-18T16:49:35.107Z,21.91
2023-08-18T16:52:23.767Z,21.92
2023-08-18T16:54:59.007Z,21.93
2023-08-18T16:57:47.744Z,21.94
2023-08-18T17:00:23.051Z,21.99
2023-08-18T17:03:11.787Z,22.01
2023-08-18T17:05:50.031Z,22.04
2023-08-18T17:08:38.783Z,22.05
2023-08-18T17:11:14.007Z,22.04
2023-08-18T17:14:02.810Z,22.01
2023-08-18T17:16:58.772Z,22.00
2023-08-18T17:19:41.103Z,21.99
2023-08-18T17:22:29.766Z,21.98
2023-08-18T17:25:06.274Z,21.97
2023-08-18T17:27:54.763Z,21.93
2023-08-18T17:30:30.282Z,21.89
2023-08-18T17:33:18.735Z,21.83
2023-08-18T17:35:54.042Z,21.79
2023-08-18T17:38:42.737Z,21.77
2023-08-18T17:41:17.997Z,21.76
2023-08-18T17:44:06.759Z,21.75
2023-08-18T17:46:42.063Z,21.73
2023-08-18T17:49:23.808Z,21.69
2023-08-18T17:52:05.752Z,21.64
2023-08-18T17:54:47.844Z,21.62
2023-08-18T17:57:36.753Z,21.61
2023-08-18T18:00:12.812Z,21.60
2023-08-18T18:03:01.817Z,21.59
2023-08-18T18:05:39.728Z,21.56
2023-08-18T18:08:28.768Z,21.53
2023-08-18T18:11:04.770Z,21.47
2023-08-18T18:14:00.758Z,21.45
2023-08-18T18:16:57.307Z,21.44
2023-08-18T18:19:40.082Z,21.43
2023-08-18T18:22:28.750Z,21.42
2023-08-18T18:25:05.035Z,21.40
2023-08-18T18:28:00.763Z,21.38
2023-08-18T18:30:56.753Z,21.37
2023-08-18T18:33:52.749Z,21.35
2023-08-18T18:36:34.981Z,21.36
2023-08-18T18:39:16.843Z,21.37
2023-08-18T18:41:58.743Z,21.39
2023-08-18T18:44:40.829Z,21.38
2023-08-18T18:47:26.737Z,21.35
2023-08-18T18:50:09.534Z,21.31
2023-08-18T18:52:51.774Z,21.29
2023-08-18T18:55:33.824Z,21.29
2023-08-18T18:58:15.771Z,21.29
2023-08-18T19:00:57.912Z,21.29
2023-08-18T19:03:39.797Z,21.27
2023-08-18T19:06:21.844Z,21.25
2023-08-18T19:09:03.739Z,21.23
2023-08-18T19:12:00.732Z,21.25
2023-08-18T19:15:03.203Z,21.28
2023-08-18T19:17:59.778Z,21.32
2023-08-18T19:20:55.732Z,21.33
2023-08-18T19:23:52.702Z,21.34
2023-08-18T19:26:49.127Z,21.33
2023-08-18T19:29:44.761Z,21.35
2023-08-18T19:32:40.774Z,21.37
2023-08-18T19:35:36.739Z,21.40
2023-08-18T19:38:33.765Z,21.41
2023-08-18T19:41:22.772Z,21.40
2023-08-18T19:43:57.831Z,21.39
2023-08-18T19:46:46.777Z,21.38
2023-08-18T19:49:22.017Z,21.37
2023-08-18T19:52:11.777Z,21.37
2023-08-18T19:54:51.244Z,21.39
2023-08-18T19:57:36.210Z,21.39
2023-08-18T20:00:19.726Z,21.38
2023-08-18T20:02:56.194Z,21.38
2023-08-18T20:05:32.105Z,21.39
2023-08-18T20:08:16.737Z,21.40
2023-08-18T20:10:51.861Z,21.42
2023-08-18T20:13:33.756Z,21.42
2023-08-18T20:16:15.882Z,21.42
2023-08-18T20:18:51.213Z,21.43
2023-08-18T20:21:32.722Z,21.42
2023-08-18T20:24:07.814Z,21.40
2023-08-18T20:26:43.008Z,21.38
2023-08-18T20:29:24.777Z,21.36
2023-08-18T20:31:59.854Z,21.33
2023-08-18T20:34:35.003Z,21.29
2023-08-18T20:37:16.744Z,21.25
2023-08-18T20:39:51.802Z,21.24
2023-08-18T20:42:27.264Z,21.23
2023-08-18T20:45:10.739Z,21.24
2023-08-18T20:47:45.832Z,21.24
2023-08-18T20:50:22.019Z,21.25
2023-08-18T20:53:04.746Z,21.23
2023-08-18T20:55:39.799Z,21.21
2023-08-18T20:58:16.174Z,21.18
2023-08-18T21:01:02.736Z,21.18
2023-08-18T21:03:37.976Z,21.18
2023-08-18T21:06:13.995Z,21.18
2023-08-18T21:08:55.749Z,21.18
2023-08-18T21:11:31.842Z,21.15
2023-08-18T21:14:14.754Z,21.15
2023-08-18T21:17:03.752Z,21.16
2023-08-18T21:19:39.261Z,21.15
2023-08-18T21:22:27.717Z,21.17
2023-08-18T21:25:03.460Z,21.14
2023-08-18T21:27:52.754Z,21.09
2023-08-18T21:30:28.113Z,21.05
2023-08-18T21:33:16.743Z,21.03
2023-08-18T21:35:52.120Z,21.04
2023-08-18T21:38:41.749Z,21.05
2023-08-18T21:41:17.813Z,21.06
2023-08-18T21:44:07.587Z,21.04
2023-08-18T21:46:45.007Z,21.04
2023-08-18T21:49:33.752Z,21.04
2023-08-18T21:52:09.024Z,21.04
2023-08-18T21:54:57.736Z,21.06
2023-08-18T21:57:32.995Z,21.07
2023-08-18T22:00:21.750Z,21.07
2023-08-18T22:02:57.000Z,21.04
2023-08-18T22:05:39.388Z,21.03
2023-08-18T22:08:20.749Z,21.02
2023-08-18T22:11:04.030Z,21.03
2023-08-18T22:13:59.747Z,21.03
2023-08-18T22:16:48.750Z,21.02
2023-08-18T22:19:24.528Z,21.00
2023-08-18T22:22:24.346Z,20.98
2023-08-18T22:25:07.841Z,20.96
2023-08-18T22:27:57.738Z,20.97
2023-08-18T22:30:32.816Z,20.99
2023-08-18T22:33:24.248Z,20.99
2023-08-18T22:36:03.798Z,20.98
2023-08-18T22:38:52.720Z,20.99
2023-08-18T22:41:27.877Z,20.97
2023-08-18T22:44:16.742Z,20.93
2023-08-18T22:47:28.848Z,20.90
2023-08-18T22:50:24.750Z,20.85
2023-08-18T22:53:20.774Z,20.80
2023-08-18T22:56:17.752Z,20.75
2023-08-18T22:59:13.753Z,20.70
2023-08-18T23:02:09.745Z,20.68
2023-08-18T23:05:05.762Z,20.68
2023-08-18T23:08:01.786Z,20.67
2023-08-18T23:10:57.716Z,20.65
2023-08-18T23:13:42.035Z,20.61
2023-08-18T23:16:30.813Z,20.60
2023-08-18T23:19:06.056Z,20.61
2023-08-18T23:21:54.730Z,20.62
2023-08-18T23:24:29.974Z,20.63
2023-08-18T23:27:18.744Z,20.64
2023-08-18T23:29:53.984Z,20.62
2023-08-18T23:32:43.827Z,20.60
2023-08-18T23:35:19.102Z,20.61
2023-08-18T23:38:07.744Z,20.64
2023-08-18T23:40:43.512Z,20.67
2023-08-18T23:43:32.702Z,20.69
2023-08-18T23:46:22.807Z,20.70
2023-08-18T23:48:58.819Z,20.69
2023-08-18T23:51:47.741Z,20.71
2023-08-18T23:54:22.831Z,20.75
2023-08-18T23:57:12.741Z,20.78
2023-08-18T23:59:47.834Z,20.82
